createdAt,value
2022-12-18T00:00:07.202Z,-5.98
2022-12-18T00:02:57.217Z,-5.97
2022-12-18T00:05:25.430Z,-5.95
2022-12-18T00:07:53.460Z,-5.92
2022-12-18T00:10:21.486Z,-5.90
2022-12-18T00:12:50.016Z,-5.89
2022-12-18T00:15:18.062Z,-5.87
2022-12-18T00:17:46.561Z,-5.86
2022-12-18T00:20:14.593Z,-5.87
2022-12-18T00:22:43.112Z,-5.86
2022-12-18T00:25:11.635Z,-5.86
2022-12-18T00:27:41.033Z,-5.88
2022-12-18T00:30:09.785Z,-5.88
2022-12-18T00:32:38.283Z,-5.88
2022-12-18T00:35:08.134Z,-5.86
2022-12-18T00:37:36.390Z,-5.85
2022-12-18T00:40:04.857Z,-5.85
2022-12-18T00:42:51.666Z,-5.83
2022-12-18T00:45:19.814Z,-5.84
2022-12-18T00:47:47.811Z,-5.82
2022-12-18T00:50:16.181Z,-5.82
2022-12-18T00:52:44.392Z,-5.83
2022-12-18T00:55:13.487Z,-5.81
2022-12-18T00:57:42.090Z,-5.81
2022-12-18T01:00:13.926Z,-5.80
2022-12-18T01:02:42.960Z,-5.80
2022-12-18T01:05:13.393Z,-5.80
2022-12-18T01:07:41.822Z,-5.80
2022-12-18T01:10:12.562Z,-5.80
2022-12-18T01:12:40.956Z,-5.80
2022-12-18T01:15:11.218Z,-5.79
2022-12-18T01:17:40.891Z,-5.77
2022-12-18T01:20:10.779Z,-5.76
2022-12-18T01:22:39.080Z,-5.75
2022-12-18T01:25:07.589Z,-5.74
2022-12-18T01:27:36.194Z,-5.73
2022-12-18T01:30:05.329Z,-5.73
2022-12-18T01:32:33.896Z,-5.75
2022-12-18T01:35:01.902Z,-5.74
2022-12-18T01:37:30.381Z,-5.74
2022-12-18T01:39:58.399Z,-5.73
2022-12-18T01:42:26.894Z,-5.72
2022-12-18T01:45:13.165Z,-5.70
2022-12-18T01:48:03.944Z,-5.68
2022-12-18T01:50:36.907Z,-5.66
2022-12-18T01:53:12.893Z,-5.64
2022-12-18T01:55:53.918Z,-5.63
2022-12-18T01:58:29.145Z,-5.63
2022-12-18T02:00:57.504Z,-5.66
2022-12-18T02:03:25.713Z,-5.70
2022-12-18T02:05:59.743Z,-5.72
2022-12-18T02:08:37.626Z,-5.75
2022-12-18T02:11:36.058Z,-5.77
2022-12-18T02:14:28.798Z,-5.81
2022-12-18T02:17:12.786Z,-5.81
2022-12-18T02:20:12.607Z,-5.81
2022-12-18T02:22:59.672Z,-5.81
2022-12-18T02:25:58.617Z,-5.81
2022-12-18T02:28:32.102Z,-5.80
2022-12-18T02:31:04.582Z,-5.79
2022-12-18T02:33:35.586Z,-5.78
2022-12-18T02:36:05.546Z,-5.76
2022-12-18T02:38:35.023Z,-5.78
2022-12-18T02:41:04.504Z,-5.78
2022-12-18T02:43:32.693Z,-5.78
2022-12-18T02:46:02.740Z,-5.78
2022-12-18T02:48:35.076Z,-5.77
2022-12-18T02:51:27.978Z,-5.76
2022-12-18T02:54:19.077Z,-5.74
2022-12-18T02:56:53.271Z,-5.74
2022-12-18T02:59:32.066Z,-5.75
2022-12-18T03:02:10.016Z,-5.78
2022-12-18T03:04:48.771Z,-5.84
2022-12-18T03:07:22.824Z,-5.89
2022-12-18T03:09:54.261Z,-5.92
2022-12-18T03:12:36.620Z,-5.94
2022-12-18T03:15:17.679Z,-5.93
2022-12-18T03:17:49.419Z,-5.94
2022-12-18T03:20:22.603Z,-5.92
2022-12-18T03:22:55.016Z,-5.93
2022-12-18T03:25:25.105Z,-5.95
2022-12-18T03:27:59.128Z,-5.95
2022-12-18T03:30:30.742Z,-5.95
2022-12-18T03:33:22.871Z,-5.92
2022-12-18T03:35:51.003Z,-5.88
2022-12-18T03:38:19.366Z,-5.89
2022-12-18T03:41:04.323Z,-5.88
2022-12-18T03:43:58.840Z,-5.89
2022-12-18T03:46:32.353Z,-5.90
2022-12-18T03:49:12.610Z,-5.91
2022-12-18T03:51:49.328Z,-5.94
2022-12-18T03:54:19.634Z,-5.98
2022-12-18T03:56:56.208Z,-6.00
2022-12-18T03:59:26.413Z,-5.99
2022-12-18T04:01:59.118Z,-5.98
2022-12-18T04:04:29.677Z,-5.96
2022-12-18T04:06:59.405Z,-5.95
2022-12-18T04:09:28.646Z,-5.96
2022-12-18T04:11:56.763Z,-5.98
2022-12-18T04:14:24.947Z,-5.99
2022-12-18T04:16:53.059Z,-6.02
2022-12-18T04:19:21.216Z,-6.03
2022-12-18T04:21:49.282Z,-6.04
2022-12-18T04:24:18.029Z,-6.03
2022-12-18T04:26:46.694Z,-6.02
2022-12-18T04:29:15.257Z,-6.02
2022-12-18T04:31:43.400Z,-6.01
2022-12-18T04:34:11.864Z,-5.99
2022-12-18T04:36:39.851Z,-5.98
2022-12-18T04:39:07.858Z,-5.96
2022-12-18T04:41:36.440Z,-5.95
2022-12-18T04:44:04.725Z,-5.93
2022-12-18T04:46:32.875Z,-5.91
2022-12-18T04:49:00.990Z,-5.92
2022-12-18T04:51:29.183Z,-5.95
2022-12-18T04:53:57.478Z,-5.94
2022-12-18T04:56:25.575Z,-5.93
2022-12-18T04:58:53.918Z,-5.95
2022-12-18T05:01:22.478Z,-5.95
2022-12-18T05:03:52.499Z,-5.93
2022-12-18T05:06:20.774Z,-5.93
2022-12-18T05:08:49.092Z,-5.95
2022-12-18T05:11:17.347Z,-5.97
2022-12-18T05:13:46.499Z,-5.95
2022-12-18T05:16:15.985Z,-5.96
2022-12-18T05:18:44.820Z,-5.98
2022-12-18T05:21:13.912Z,-5.98
2022-12-18T05:23:42.902Z,-6.00
2022-12-18T05:26:17.042Z,-6.00
2022-12-18T05:28:45.269Z,-6.00
2022-12-18T05:31:14.739Z,-6.02
2022-12-18T05:33:43.313Z,-6.02
2022-12-18T05:36:12.965Z,-6.05
2022-12-18T05:38:41.622Z,-6.04
2022-12-18T05:41:10.525Z,-6.04
2022-12-18T05:43:40.719Z,-6.04
2022-12-18T05:46:13.089Z,-6.04
2022-12-18T05:48:41.853Z,-6.04
2022-12-18T05:51:12.928Z,-6.02
2022-12-18T05:53:42.548Z,-6.00
2022-12-18T05:56:15.736Z,-5.98
2022-12-18T05:58:43.932Z,-5.97
2022-12-18T06:01:16.349Z,-6.00
2022-12-18T06:03:45.630Z,-6.05
2022-12-18T06:06:20.416Z,-6.09
2022-12-18T06:08:48.919Z,-6.13
2022-12-18T06:11:20.241Z,-6.16
2022-12-18T06:13:56.312Z,-6.20
2022-12-18T06:16:28.993Z,-6.25
2022-12-18T06:19:01.854Z,-6.27
2022-12-18T06:21:31.026Z,-6.29
2022-12-18T06:24:01.073Z,-6.28
2022-12-18T06:26:29.166Z,-6.27
2022-12-18T06:28:57.591Z,-6.27
2022-12-18T06:31:27.425Z,-6.27
2022-12-18T06:33:56.021Z,-6.27
2022-12-18T06:36:24.166Z,-6.33
2022-12-18T06:38:52.243Z,-6.40
2022-12-18T06:41:22.565Z,-6.44
2022-12-18T06:43:52.193Z,-6.47
2022-12-18T06:46:22.728Z,-6.45
2022-12-18T06:48:51.608Z,-6.47
2022-12-18T06:51:25.032Z,-6.47
2022-12-18T06:53:53.520Z,-6.48
2022-12-18T06:56:21.678Z,-6.51
2022-12-18T06:58:50.939Z,-6.53
2022-12-18T07:01:19.397Z,-6.51
2022-12-18T07:03:48.261Z,-6.54
2022-12-18T07:06:21.860Z,-6.53
2022-12-18T07:08:51.148Z,-6.52
2022-12-18T07:11:20.478Z,-6.48
2022-12-18T07:13:48.967Z,-6.46
2022-12-18T07:16:24.647Z,-6.47
2022-12-18T07:18:56.055Z,-6.54
2022-12-18T07:21:25.935Z,-6.60
2022-12-18T07:23:54.117Z,-6.66
2022-12-18T07:26:23.517Z,-6.64
2022-12-18T07:28:55.611Z,-6.65
2022-12-18T07:31:23.737Z,-6.67
2022-12-18T07:33:52.465Z,-6.72
2022-12-18T07:36:21.209Z,-6.70
2022-12-18T07:38:50.556Z,-6.69
2022-12-18T07:41:20.241Z,-6.66
2022-12-18T07:43:49.223Z,-6.65
2022-12-18T07:46:17.815Z,-6.64
2022-12-18T07:48:49.512Z,-6.63
2022-12-18T07:51:19.682Z,-6.61
2022-12-18T07:53:48.768Z,-6.62
2022-12-18T07:56:30.432Z,-6.64
2022-12-18T07:59:00.284Z,-6.65
2022-12-18T08:01:29.139Z,-6.70
2022-12-18T08:03:59.100Z,-6.70
2022-12-18T08:06:27.401Z,-6.64
2022-12-18T08:08:57.033Z,-6.58
2022-12-18T08:11:27.201Z,-6.59
2022-12-18T08:13:55.687Z,-6.62
2022-12-18T08:16:25.635Z,-6.63
2022-12-18T08:18:55.365Z,-6.60
2022-12-18T08:21:30.341Z,-6.59
2022-12-18T08:24:02.521Z,-6.57
2022-12-18T08:26:33.045Z,-6.61
2022-12-18T08:29:02.141Z,-6.64
2022-12-18T08:31:31.707Z,-6.60
2022-12-18T08:34:00.332Z,-6.58
2022-12-18T08:36:28.785Z,-6.59
2022-12-18T08:38:58.212Z,-6.59
2022-12-18T08:41:27.950Z,-6.57
2022-12-18T08:44:15.430Z,-6.55
2022-12-18T08:46:44.897Z,-6.54
2022-12-18T08:49:13.768Z,-6.56
2022-12-18T08:51:42.049Z,-6.61
2022-12-18T08:54:14.091Z,-6.64
2022-12-18T08:56:42.248Z,-6.64
2022-12-18T08:59:15.779Z,-6.62
2022-12-18T09:01:49.586Z,-6.59
2022-12-18T09:04:18.499Z,-6.56
2022-12-18T09:06:46.712Z,-6.54
2022-12-18T09:09:17.958Z,-6.52
2022-12-18T09:11:46.102Z,-6.54
2022-12-18T09:14:14.921Z,-6.57
2022-12-18T09:16:44.028Z,-6.59
2022-12-18T09:19:12.368Z,-6.59
2022-12-18T09:21:48.042Z,-6.63
2022-12-18T09:24:20.428Z,-6.63
2022-12-18T09:26:49.385Z,-6.60
2022-12-18T09:29:19.332Z,-6.57
2022-12-18T09:31:48.426Z,-6.54
2022-12-18T09:34:17.913Z,-6.53
2022-12-18T09:36:46.718Z,-6.53
2022-12-18T09:39:15.972Z,-6.49
2022-12-18T09:41:56.245Z,-6.45
2022-12-18T09:44:45.521Z,-6.42
2022-12-18T09:47:29.404Z,-6.39
2022-12-18T09:50:02.022Z,-6.35
2022-12-18T09:52:45.269Z,-6.34
2022-12-18T09:55:35.151Z,-6.34
2022-12-18T09:58:15.967Z,-6.36
2022-12-18T10:00:44.299Z,-6.36
2022-12-18T10:03:16.410Z,-6.43
2022-12-18T10:06:16.444Z,-6.39
2022-12-18T10:09:11.763Z,-6.35
2022-12-18T10:11:55.180Z,-6.27
2022-12-18T10:14:48.311Z,-6.20
2022-12-18T10:17:23.468Z,-6.16
2022-12-18T10:20:14.761Z,-6.10
2022-12-18T10:22:49.070Z,-6.08
2022-12-18T10:25:40.206Z,-6.13
2022-12-18T10:28:15.338Z,-6.15
2022-12-18T10:30:44.979Z,-6.17
2022-12-18T10:33:15.902Z,-6.19
2022-12-18T10:35:45.796Z,-6.17
2022-12-18T10:38:13.848Z,-6.12
2022-12-18T10:41:00.059Z,-6.04
2022-12-18T10:43:38.312Z,-5.95
2022-12-18T10:46:09.790Z,-5.90
2022-12-18T10:48:38.153Z,-5.88
2022-12-18T10:51:12.345Z,-5.86
2022-12-18T10:53:44.532Z,-5.89
2022-12-18T10:56:13.502Z,-5.88
2022-12-18T10:58:42.055Z,-5.87
2022-12-18T11:01:14.069Z,-5.87
2022-12-18T11:03:45.839Z,-5.84
2022-12-18T11:06:18.774Z,-5.82
2022-12-18T11:09:20.191Z,-5.75
2022-12-18T11:12:03.044Z,-5.69
2022-12-18T11:14:35.448Z,-5.72
2022-12-18T11:17:24.845Z,-5.74
2022-12-18T11:20:23.226Z,-5.74
2022-12-18T11:22:58.883Z,-5.71
2022-12-18T11:25:33.522Z,-5.70
2022-12-18T11:28:04.964Z,-5.73
2022-12-18T11:30:38.588Z,-5.72
2022-12-18T11:33:23.080Z,-5.70
2022-12-18T11:35:57.948Z,-5.74
2022-12-18T11:38:35.842Z,-5.79
2022-12-18T11:41:46.192Z,-5.79
2022-12-18T11:44:22.549Z,-5.74
2022-12-18T11:47:00.987Z,-5.67
2022-12-18T11:49:37.747Z,-5.63
2022-12-18T11:52:20.993Z,-5.59
2022-12-18T11:54:59.524Z,-5.56
2022-12-18T11:58:00.902Z,-5.60
2022-12-18T12:00:29.929Z,-5.73
2022-12-18T12:03:24.074Z,-5.82
2022-12-18T12:06:08.035Z,-5.86
2022-12-18T12:08:36.295Z,-5.83
2022-12-18T12:11:14.041Z,-5.80
2022-12-18T12:14:20.268Z,-5.75
2022-12-18T12:17:15.280Z,-5.69
2022-12-18T12:19:57.261Z,-5.73
2022-12-18T12:22:25.966Z,-5.77
2022-12-18T12:25:09.552Z,-5.73
2022-12-18T12:28:06.556Z,-5.71
2022-12-18T12:31:07.240Z,-5.70
2022-12-18T12:33:55.018Z,-5.71
2022-12-18T12:36:26.666Z,-5.75
2022-12-18T12:39:01.910Z,-5.80
2022-12-18T12:41:53.940Z,-5.82
2022-12-18T12:44:32.198Z,-5.94
2022-12-18T12:47:08.147Z,-6.01
2022-12-18T12:49:40.896Z,-6.03
2022-12-18T12:52:17.058Z,-5.98
2022-12-18T12:54:46.925Z,-5.94
2022-12-18T12:57:28.060Z,-5.84
2022-12-18T13:00:15.424Z,-5.76
2022-12-18T13:02:57.322Z,-5.77
2022-12-18T13:05:30.138Z,-5.85
2022-12-18T13:08:04.694Z,-6.00
2022-12-18T13:10:41.828Z,-6.09
2022-12-18T13:13:23.739Z,-6.15
2022-12-18T13:16:08.064Z,-6.19
2022-12-18T13:18:37.280Z,-6.24
2022-12-18T13:21:21.285Z,-6.22
2022-12-18T13:23:50.552Z,-6.23
2022-12-18T13:26:21.935Z,-6.25
2022-12-18T13:28:56.151Z,-6.27
2022-12-18T13:31:43.511Z,-6.31
2022-12-18T13:34:28.570Z,-6.33
2022-12-18T13:37:32.888Z,-6.31
2022-12-18T13:40:01.136Z,-6.32
2022-12-18T13:42:59.490Z,-6.34
2022-12-18T13:45:41.725Z,-6.35
2022-12-18T13:48:27.545Z,-6.31
2022-12-18T13:51:04.741Z,-6.33
2022-12-18T13:53:50.536Z,-6.34
2022-12-18T13:56:22.618Z,-6.37
2022-12-18T13:59:10.025Z,-6.40
2022-12-18T14:01:43.567Z,-6.46
2022-12-18T14:04:14.051Z,-6.50
2022-12-18T14:06:44.289Z,-6.53
2022-12-18T14:09:27.812Z,-6.56
2022-12-18T14:12:19.155Z,-6.58
2022-12-18T14:14:53.532Z,-6.62
2022-12-18T14:17:24.315Z,-6.64
2022-12-18T14:19:53.009Z,-6.69
2022-12-18T14:22:30.759Z,-6.72
2022-12-18T14:25:30.283Z,-6.77
2022-12-18T14:28:07.377Z,-6.81
2022-12-18T14:30:41.841Z,-6.90
2022-12-18T14:33:19.860Z,-6.92
2022-12-18T14:36:20.753Z,-6.93
2022-12-18T14:38:57.484Z,-6.94
2022-12-18T14:41:34.297Z,-6.94
2022-12-18T14:44:07.309Z,-6.96
2022-12-18T14:46:41.235Z,-7.02
2022-12-18T14:49:27.880Z,-7.09
2022-12-18T14:52:05.219Z,-7.15
2022-12-18T14:54:36.464Z,-7.17
2022-12-18T14:57:26.097Z,-7.17
2022-12-18T15:00:06.044Z,-7.16
2022-12-18T15:02:37.629Z,-7.15
2022-12-18T15:05:16.026Z,-7.13
2022-12-18T15:07:56.023Z,-7.14
2022-12-18T15:10:31.065Z,-7.11
2022-12-18T15:13:04.186Z,-7.06
2022-12-18T15:15:38.729Z,-7.07
2022-12-18T15:18:10.035Z,-7.12
2022-12-18T15:20:44.367Z,-7.14
2022-12-18T15:23:21.039Z,-7.16
2022-12-18T15:25:56.692Z,-7.17
2022-12-18T15:28:37.570Z,-7.17
2022-12-18T15:31:11.005Z,-7.21
2022-12-18T15:34:01.850Z,-7.25
2022-12-18T15:36:31.345Z,-7.25
2022-12-18T15:39:05.238Z,-7.28
2022-12-18T15:41:37.543Z,-7.29
2022-12-18T15:44:26.691Z,-7.29
2022-12-18T15:46:55.240Z,-7.28
2022-12-18T15:49:23.867Z,-7.27
2022-12-18T15:51:59.640Z,-7.28
2022-12-18T15:54:46.598Z,-7.28
2022-12-18T15:57:27.790Z,-7.27
2022-12-18T15:59:59.401Z,-7.29
2022-12-18T16:02:29.695Z,-7.29
2022-12-18T16:04:58.321Z,-7.30
2022-12-18T16:07:29.126Z,-7.32
2022-12-18T16:10:00.277Z,-7.34
2022-12-18T16:12:30.974Z,-7.36
2022-12-18T16:14:59.199Z,-7.39
2022-12-18T16:17:27.456Z,-7.43
2022-12-18T16:19:56.301Z,-7.45
2022-12-18T16:22:29.224Z,-7.47
2022-12-18T16:24:58.632Z,-7.46
2022-12-18T16:27:27.183Z,-7.50
2022-12-18T16:29:55.510Z,-7.55
2022-12-18T16:32:24.594Z,-7.58
2022-12-18T16:34:53.560Z,-7.62
2022-12-18T16:37:21.820Z,-7.65
2022-12-18T16:39:50.101Z,-7.69
2022-12-18T16:42:20.807Z,-7.71
2022-12-18T16:44:50.915Z,-7.75
2022-12-18T16:47:19.979Z,-7.77
2022-12-18T16:49:51.975Z,-7.81
2022-12-18T16:52:20.934Z,-7.83
2022-12-18T16:54:49.271Z,-7.83
2022-12-18T16:57:21.091Z,-7.84
2022-12-18T16:59:53.508Z,-7.85
2022-12-18T17:02:26.185Z,-7.87
2022-12-18T17:05:03.142Z,-7.89
2022-12-18T17:07:35.682Z,-7.92
2022-12-18T17:10:05.843Z,-7.95
2022-12-18T17:12:34.705Z,-7.96
2022-12-18T17:15:03.268Z,-7.99
2022-12-18T17:17:31.419Z,-7.98
2022-12-18T17:20:00.145Z,-7.99
2022-12-18T17:22:28.370Z,-8.03
2022-12-18T17:24:57.197Z,-8.09
2022-12-18T17:27:26.034Z,-8.14
2022-12-18T17:29:55.665Z,-8.17
2022-12-18T17:32:24.440Z,-8.20
2022-12-18T17:34:52.951Z,-8.22
2022-12-18T17:37:21.050Z,-8.21
2022-12-18T17:39:49.225Z,-8.21
2022-12-18T17:42:17.585Z,-8.21
2022-12-18T17:44:46.224Z,-8.20
2022-12-18T17:47:15.176Z,-8.16
2022-12-18T17:49:43.706Z,-8.15
2022-12-18T17:52:14.762Z,-8.17
2022-12-18T17:54:44.472Z,-8.20
2022-12-18T17:57:13.480Z,-8.20
2022-12-18T17:59:41.821Z,-8.22
2022-12-18T18:02:12.330Z,-8.25
2022-12-18T18:04:40.944Z,-8.27
2022-12-18T18:07:10.491Z,-8.29
2022-12-18T18:09:38.819Z,-8.33
2022-12-18T18:12:28.208Z,-8.35
2022-12-18T18:14:57.061Z,-8.38
2022-12-18T18:17:25.931Z,-8.41
2022-12-18T18:19:55.855Z,-8.44
2022-12-18T18:22:25.507Z,-8.46
2022-12-18T18:24:55.032Z,-8.48
2022-12-18T18:27:24.021Z,-8.47
2022-12-18T18:29:52.852Z,-8.44
2022-12-18T18:32:21.736Z,-8.47
2022-12-18T18:34:50.691Z,-8.52
2022-12-18T18:37:20.362Z,-8.55
2022-12-18T18:39:48.843Z,-8.57
2022-12-18T18:42:17.513Z,-8.59
2022-12-18T18:44:49.026Z,-8.61
2022-12-18T18:47:18.112Z,-8.63
2022-12-18T18:49:46.679Z,-8.68
2022-12-18T18:52:15.729Z,-8.69
2022-12-18T18:55:03.560Z,-8.70
2022-12-18T18:57:35.783Z,-8.70
2022-12-18T19:00:05.171Z,-8.70
2022-12-18T19:02:34.114Z,-8.69
2022-12-18T19:05:03.102Z,-8.72
2022-12-18T19:07:31.524Z,-8.71
2022-12-18T19:10:04.652Z,-8.71
2022-12-18T19:12:53.876Z,-8.67
2022-12-18T19:15:26.311Z,-8.67
2022-12-18T19:17:55.555Z,-8.68
2022-12-18T19:20:24.015Z,-8.68
2022-12-18T19:22:55.055Z,-8.71
2022-12-18T19:25:38.502Z,-8.72
2022-12-18T19:28:21.262Z,-8.72
2022-12-18T19:30:58.805Z,-8.68
2022-12-18T19:33:45.652Z,-8.67
2022-12-18T19:36:26.340Z,-8.66
2022-12-18T19:39:00.658Z,-8.59
2022-12-18T19:41:32.980Z,-8.56
2022-12-18T19:44:09.299Z,-8.56
2022-12-18T19:46:41.660Z,-8.57
2022-12-18T19:49:11.535Z,-8.58
2022-12-18T19:51:45.802Z,-8.58
2022-12-18T19:54:17.064Z,-8.56
2022-12-18T19:56:47.325Z,-8.55
2022-12-18T19:59:24.847Z,-8.51
2022-12-18T20:02:01.326Z,-8.46
2022-12-18T20:04:30.037Z,-8.47
2022-12-18T20:06:59.041Z,-8.48
2022-12-18T20:09:27.998Z,-8.50
2022-12-18T20:11:56.980Z,-8.48
2022-12-18T20:14:25.575Z,-8.42
2022-12-18T20:16:55.370Z,-8.39
2022-12-18T20:19:24.311Z,-8.41
2022-12-18T20:21:53.490Z,-8.41
2022-12-18T20:24:22.221Z,-8.40
2022-12-18T20:26:51.048Z,-8.38
2022-12-18T20:29:19.407Z,-8.36
2022-12-18T20:31:48.110Z,-8.34
2022-12-18T20:34:17.270Z,-8.36
2022-12-18T20:36:47.645Z,-8.37
2022-12-18T20:39:18.169Z,-8.38
2022-12-18T20:41:48.036Z,-8.40
2022-12-18T20:44:22.629Z,-8.41
2022-12-18T20:47:00.977Z,-8.43
2022-12-18T20:49:39.647Z,-8.45
2022-12-18T20:52:15.014Z,-8.46
2022-12-18T20:54:43.321Z,-8.47
2022-12-18T20:57:11.666Z,-8.48
2022-12-18T20:59:44.794Z,-8.45
2022-12-18T21:02:17.781Z,-8.45
2022-12-18T21:04:46.588Z,-8.50
2022-12-18T21:07:15.503Z,-8.52
2022-12-18T21:09:43.894Z,-8.56
2022-12-18T21:12:40.573Z,-8.58
2022-12-18T21:15:18.384Z,-8.59
2022-12-18T21:17:47.281Z,-8.62
2022-12-18T21:20:17.910Z,-8.62
2022-12-18T21:22:47.518Z,-8.59
2022-12-18T21:25:16.161Z,-8.59
2022-12-18T21:27:44.558Z,-8.60
2022-12-18T21:30:14.264Z,-8.60
2022-12-18T21:32:43.140Z,-8.58
2022-12-18T21:35:11.346Z,-8.57
2022-12-18T21:37:39.585Z,-8.62
2022-12-18T21:40:09.245Z,-8.62
2022-12-18T21:43:17.669Z,-8.62
2022-12-18T21:45:46.220Z,-8.63
2022-12-18T21:48:14.530Z,-8.63
2022-12-18T21:50:42.686Z,-8.64
2022-12-18T21:53:10.955Z,-8.63
2022-12-18T21:55:39.847Z,-8.64
2022-12-18T21:58:08.271Z,-8.63
2022-12-18T22:00:36.839Z,-8.60
2022-12-18T22:03:18.771Z,-8.61
2022-12-18T22:05:53.313Z,-8.61
2022-12-18T22:08:35.861Z,-8.60
2022-12-18T22:11:12.551Z,-8.62
2022-12-18T22:13:40.743Z,-8.62
2022-12-18T22:16:08.952Z,-8.61
2022-12-18T22:18:37.186Z,-8.60
2022-12-18T22:21:06.591Z,-8.61
2022-12-18T22:23:35.025Z,-8.60
2022-12-18T22:26:04.631Z,-8.60
2022-12-18T22:28:52.056Z,-8.59
2022-12-18T22:31:21.370Z,-8.58
2022-12-18T22:33:49.593Z,-8.58
2022-12-18T22:36:17.898Z,-8.58
2022-12-18T22:38:47.736Z,-8.57
2022-12-18T22:41:18.005Z,-8.57
2022-12-18T22:43:46.171Z,-8.56
2022-12-18T22:46:16.999Z,-8.56
2022-12-18T22:48:45.552Z,-8.55
2022-12-18T22:51:18.599Z,-8.51
2022-12-18T22:53:47.228Z,-8.47
2022-12-18T22:56:21.067Z,-8.46
2022-12-18T22:58:51.698Z,-8.46
2022-12-18T23:01:22.814Z,-8.44
2022-12-18T23:03:52.111Z,-8.43
2022-12-18T23:06:22.711Z,-8.41
2022-12-18T23:08:56.018Z,-8.41
2022-12-18T23:11:26.695Z,-8.41
2022-12-18T23:13:56.719Z,-8.40
2022-12-18T23:16:26.997Z,-8.43
2022-12-18T23:18:56.938Z,-8.46
2022-12-18T23:21:25.039Z,-8.48
2022-12-18T23:23:54.572Z,-8.48
2022-12-18T23:26:24.287Z,-8.46
2022-12-18T23:28:53.574Z,-8.45
2022-12-18T23:31:27.901Z,-8.42
2022-12-18T23:33:59.353Z,-8.43
2022-12-18T23:36:28.442Z,-8.43
2022-12-18T23:39:00.917Z,-8.42
2022-12-18T23:41:31.213Z,-8.42
2022-12-18T23:44:00.522Z,-8.43
2022-12-18T23:46:31.575Z,-8.45
2022-12-18T23:49:01.514Z,-8.45
2022-12-18T23:51:31.521Z,-8.45
2022-12-18T23:54:01.372Z,-8.43
2022-12-18T23:56:30.607Z,-8.42
2022-12-18T23:58:58.659Z,-8.41
